createdAt,value
2023-02-23T00:00:49.297Z,100884.22
2023-02-23T00:02:20.889Z,100884.97
2023-02-23T00:03:55.066Z,100887.44
2023-02-23T00:05:28.034Z,100887.31
2023-02-23T00:06:59.638Z,100881.94
2023-02-23T00:08:32.022Z,100890.50
2023-02-23T00:10:03.706Z,100885.94
2023-02-23T00:11:35.241Z,100880.53
2023-02-23T00:13:06.863Z,100883.06
2023-02-23T00:14:39.892Z,100885.56
2023-02-23T00:16:13.738Z,100874.16
2023-02-23T00:17:47.819Z,100885.94
2023-02-23T00:19:19.507Z,100886.34
2023-02-23T00:20:57.525Z,100883.09
2023-02-23T00:22:29.089Z,100886.69
2023-02-23T00:24:02.299Z,100880.53
2023-02-23T00:25:33.833Z,100879.59
2023-02-23T00:27:06.579Z,100879.59
2023-02-23T00:28:38.518Z,100871.03
2023-02-23T00:30:13.170Z,100873.84
2023-02-23T00:31:45.584Z,100880.91
2023-02-23T00:33:17.714Z,100872.88
2023-02-23T00:34:49.795Z,100879.00
2023-02-23T00:36:23.026Z,100874.47
2023-02-23T00:37:54.581Z,100875.97
2023-02-23T00:39:29.111Z,100874.06
2023-02-23T00:41:00.782Z,100874.81
2023-02-23T00:42:32.415Z,100876.47
2023-02-23T00:44:06.083Z,100876.53
2023-02-23T00:45:38.943Z,100875.66
2023-02-23T00:47:10.439Z,100879.16
2023-02-23T00:48:42.247Z,100877.44
2023-02-23T00:50:17.190Z,100874.88
2023-02-23T00:51:48.748Z,100873.03
2023-02-23T00:53:20.559Z,100867.53
2023-02-23T00:54:52.062Z,100873.03
2023-02-23T00:56:23.641Z,100873.09
2023-02-23T00:57:55.288Z,100879.22
2023-02-23T00:59:26.892Z,100873.81
2023-02-23T01:00:59.868Z,100874.00
2023-02-23T01:02:31.482Z,100873.22
2023-02-23T01:04:03.312Z,100877.75
2023-02-23T01:05:35.189Z,100881.41
2023-02-23T01:07:06.769Z,100877.22
2023-02-23T01:08:40.016Z,100877.47
2023-02-23T01:10:21.034Z,100874.25
2023-02-23T01:11:53.102Z,100879.59
2023-02-23T01:13:24.797Z,100875.31
2023-02-23T01:14:56.415Z,100877.28
2023-02-23T01:16:30.368Z,100880.97
2023-02-23T01:18:02.022Z,100881.16
2023-02-23T01:19:34.795Z,100869.88
2023-02-23T01:21:14.731Z,100871.84
2023-02-23T01:22:47.318Z,100876.44
2023-02-23T01:24:18.860Z,100870.38
2023-02-23T01:25:50.362Z,100870.53
2023-02-23T01:27:21.843Z,100878.44
2023-02-23T01:28:54.338Z,100870.63
2023-02-23T01:30:26.060Z,100869.84
2023-02-23T01:31:59.116Z,100874.97
2023-02-23T01:33:31.175Z,100871.41
2023-02-23T01:35:04.427Z,100878.44
2023-02-23T01:36:37.256Z,100874.84
2023-02-23T01:38:08.982Z,100874.59
2023-02-23T01:39:40.484Z,100869.88
2023-02-23T01:41:12.013Z,100872.22
2023-02-23T01:42:46.391Z,100875.72
2023-02-23T01:44:39.562Z,100865.22
2023-02-23T01:46:11.168Z,100870.69
2023-02-23T01:47:44.729Z,100872.72
2023-02-23T01:49:20.161Z,100874.59
2023-02-23T01:50:54.349Z,100869.47
2023-02-23T01:52:27.501Z,100870.44
2023-02-23T01:54:02.424Z,100873.13
2023-02-23T01:55:34.270Z,100875.91
2023-02-23T01:57:06.845Z,100864.56
2023-02-23T01:58:39.140Z,100877.00
2023-02-23T02:00:13.859Z,100870.06
2023-02-23T02:01:45.635Z,100868.47
2023-02-23T02:03:22.736Z,100873.72
2023-02-23T02:04:56.510Z,100871.03
2023-02-23T02:06:34.289Z,100870.94
2023-02-23T02:08:07.255Z,100858.66
2023-02-23T02:09:40.540Z,100870.94
2023-02-23T02:11:25.987Z,100869.09
2023-02-23T02:12:57.777Z,100870.97
2023-02-23T02:14:32.101Z,100859.63
2023-02-23T02:16:17.897Z,100857.00
2023-02-23T02:17:57.537Z,100871.09
2023-02-23T02:19:47.002Z,100869.31
2023-02-23T02:21:40.086Z,100872.94
2023-02-23T02:23:27.386Z,100871.34
2023-02-23T02:25:18.991Z,100867.91
2023-02-23T02:26:57.614Z,100868.84
2023-02-23T02:28:43.316Z,100867.91
2023-02-23T02:30:35.550Z,100865.28
2023-02-23T02:32:23.262Z,100868.78
2023-02-23T02:34:07.371Z,100864.38
2023-02-23T02:35:53.420Z,100870.56
2023-02-23T02:37:35.252Z,100868.84
2023-02-23T02:39:22.832Z,100871.31
2023-02-23T02:40:58.271Z,100871.31
2023-02-23T02:42:34.407Z,100869.53
2023-02-23T02:44:10.997Z,100866.03
2023-02-23T02:45:49.570Z,100866.88
2023-02-23T02:47:24.712Z,100867.00
2023-02-23T02:48:59.958Z,100870.56
2023-02-23T02:50:37.074Z,100868.88
2023-02-23T02:52:14.344Z,100866.31
2023-02-23T02:53:51.731Z,100859.25
2023-02-23T02:55:26.648Z,100866.31
2023-02-23T02:57:00.385Z,100863.78
2023-02-23T02:58:33.552Z,100867.34
2023-02-23T03:00:24.349Z,100863.78
2023-02-23T03:02:15.271Z,100860.00
2023-02-23T03:04:06.291Z,100864.84
2023-02-23T03:05:58.646Z,100867.16
2023-02-23T03:07:53.147Z,100865.09
2023-02-23T03:09:50.680Z,100851.75
2023-02-23T03:11:43.525Z,100863.03
2023-02-23T03:13:41.686Z,100861.25
2023-02-23T03:15:40.015Z,100865.78
2023-02-23T03:17:38.615Z,100869.34
2023-02-23T03:19:35.294Z,100868.16
2023-02-23T03:21:31.629Z,100861.84
2023-02-23T03:23:25.016Z,100868.72
2023-02-23T03:25:19.205Z,100863.22
2023-02-23T03:27:13.141Z,100857.72
2023-02-23T03:29:07.870Z,100862.84
2023-02-23T03:31:06.278Z,100862.78
2023-02-23T03:33:00.255Z,100856.66
2023-02-23T03:34:51.984Z,100867.34
2023-02-23T03:36:44.310Z,100866.72
2023-02-23T03:38:36.868Z,100868.59
2023-02-23T03:40:31.531Z,100874.78
2023-02-23T03:42:23.611Z,100868.03
2023-02-23T03:44:16.528Z,100865.53
2023-02-23T03:46:07.855Z,100869.06
2023-02-23T03:47:59.868Z,100876.88
2023-02-23T03:49:52.650Z,100877.66
2023-02-23T03:51:44.558Z,100873.38
2023-02-23T03:53:37.185Z,100876.91
2023-02-23T03:55:30.556Z,100883.84
2023-02-23T03:57:23.082Z,100874.22
2023-02-23T03:59:16.675Z,100874.44
2023-02-23T04:01:08.172Z,100882.53
2023-02-23T04:02:59.769Z,100873.88
2023-02-23T04:04:50.269Z,100878.28
2023-02-23T04:06:42.614Z,100873.88
2023-02-23T04:08:34.021Z,100870.50
2023-02-23T04:10:24.981Z,100881.03
2023-02-23T04:12:21.764Z,100877.47
2023-02-23T04:13:58.614Z,100881.84
2023-02-23T04:15:32.592Z,100880.16
2023-02-23T04:17:05.145Z,100887.22
2023-02-23T04:18:39.473Z,100897.66
2023-02-23T04:20:12.243Z,100883.66
2023-02-23T04:21:43.834Z,100883.94
2023-02-23T04:23:15.395Z,100884.78
2023-02-23T04:24:47.022Z,100885.75
2023-02-23T04:26:18.656Z,100884.00
2023-02-23T04:27:51.593Z,100885.00
2023-02-23T04:29:24.087Z,100895.72
2023-02-23T04:30:55.885Z,100893.22
2023-02-23T04:32:27.584Z,100895.00
2023-02-23T04:33:59.214Z,100890.50
2023-02-23T04:35:31.442Z,100887.97
2023-02-23T04:37:03.064Z,100886.25
2023-02-23T04:38:34.599Z,100896.91
2023-02-23T04:40:06.863Z,100890.03
2023-02-23T04:41:38.370Z,100892.97
2023-02-23T04:43:12.261Z,100894.78
2023-02-23T04:44:43.835Z,100893.28
2023-02-23T04:46:15.408Z,100898.91
2023-02-23T04:47:47.081Z,100897.31
2023-02-23T04:49:18.655Z,100891.44
2023-02-23T04:50:51.786Z,100892.19
2023-02-23T04:52:23.601Z,100897.59
2023-02-23T04:53:56.142Z,100893.25
2023-02-23T04:55:27.720Z,100886.38
2023-02-23T04:56:59.282Z,100887.28
2023-02-23T04:58:32.394Z,100891.63
2023-02-23T05:00:04.467Z,100896.19
2023-02-23T05:01:37.243Z,100889.31
2023-02-23T05:03:09.115Z,100887.63
2023-02-23T05:04:40.658Z,100889.41
2023-02-23T05:06:12.687Z,100899.03
2023-02-23T05:07:44.239Z,100899.03
2023-02-23T05:09:15.781Z,100893.91
2023-02-23T05:10:47.304Z,100897.47
2023-02-23T05:12:18.935Z,100895.75
2023-02-23T05:13:52.134Z,100901.81
2023-02-23T05:15:23.696Z,100902.63
2023-02-23T05:16:55.309Z,100908.00
2023-02-23T05:18:27.245Z,100908.00
2023-02-23T05:19:58.839Z,100906.38
2023-02-23T05:21:30.644Z,100904.66
2023-02-23T05:23:02.188Z,100898.72
2023-02-23T05:24:33.770Z,100908.53
2023-02-23T05:26:07.104Z,100907.72
2023-02-23T05:27:38.797Z,100909.50
2023-02-23T05:29:11.728Z,100899.97
2023-02-23T05:30:43.477Z,100915.69
2023-02-23T05:32:15.397Z,100907.97
2023-02-23T05:33:47.053Z,100903.56
2023-02-23T05:35:18.588Z,100913.28
2023-02-23T05:36:50.082Z,100904.38
2023-02-23T05:38:22.076Z,100899.03
2023-02-23T05:39:53.730Z,100905.09
2023-02-23T05:41:25.271Z,100909.50
2023-02-23T05:42:58.697Z,100907.88
2023-02-23T05:44:32.418Z,100914.16
2023-02-23T05:46:06.051Z,100908.03
2023-02-23T05:47:40.976Z,100916.06
2023-02-23T05:49:12.829Z,100912.72
2023-02-23T05:50:44.463Z,100911.91
2023-02-23T05:52:16.072Z,100916.44
2023-02-23T05:53:48.215Z,100909.47
2023-02-23T05:55:19.995Z,100915.53
2023-02-23T05:56:51.541Z,100916.59
2023-02-23T05:58:23.470Z,100913.09
2023-02-23T05:59:56.742Z,100910.69
2023-02-23T06:01:28.579Z,100913.31
2023-02-23T06:03:00.872Z,100927.25
2023-02-23T06:04:32.541Z,100921.22
2023-02-23T06:06:04.258Z,100918.63
2023-02-23T06:07:35.878Z,100921.31
2023-02-23T06:09:07.455Z,100919.44
2023-02-23T06:10:39.025Z,100922.13
2023-02-23T06:12:10.672Z,100923.03
2023-02-23T06:13:42.420Z,100923.03
2023-02-23T06:15:15.422Z,100927.47
2023-02-23T06:16:48.797Z,100920.41
2023-02-23T06:18:21.739Z,100929.03
2023-02-23T06:19:53.395Z,100934.28
2023-02-23T06:21:25.280Z,100933.53
2023-02-23T06:22:57.576Z,100937.22
2023-02-23T06:24:29.093Z,100934.66
2023-02-23T06:26:00.912Z,100934.66
2023-02-23T06:27:32.449Z,100938.09
2023-02-23T06:29:04.031Z,100942.13
2023-02-23T06:30:37.642Z,100937.47
2023-02-23T06:32:09.350Z,100939.84
2023-02-23T06:33:41.606Z,100941.47
2023-02-23T06:35:13.491Z,100944.84
2023-02-23T06:36:46.350Z,100942.13
2023-02-23T06:38:18.201Z,100944.72
2023-02-23T06:39:50.488Z,100944.56
2023-02-23T06:41:21.993Z,100947.22
2023-02-23T06:42:53.652Z,100944.63
2023-02-23T06:44:25.373Z,100943.69
2023-02-23T06:45:58.546Z,100947.09
2023-02-23T06:47:30.094Z,100948.81
2023-02-23T06:49:01.871Z,100956.88
2023-02-23T06:50:33.558Z,100955.09
2023-02-23T06:52:05.172Z,100956.00
2023-02-23T06:53:36.793Z,100955.16
2023-02-23T06:55:09.215Z,100966.75
2023-02-23T06:56:40.721Z,100966.81
2023-02-23T06:58:12.371Z,100967.81
2023-02-23T06:59:43.945Z,100968.72
2023-02-23T07:01:17.139Z,100971.53
2023-02-23T07:02:48.851Z,100977.66
2023-02-23T07:04:21.768Z,100975.84
2023-02-23T07:05:54.229Z,100978.44
2023-02-23T07:07:25.789Z,100976.63
2023-02-23T07:08:57.618Z,100976.72
2023-02-23T07:10:29.222Z,100969.69
2023-02-23T07:12:01.197Z,100979.25
2023-02-23T07:13:32.817Z,100987.09
2023-02-23T07:15:04.820Z,100979.16
2023-02-23T07:16:39.329Z,100984.41
2023-02-23T07:18:10.994Z,100979.25
2023-02-23T07:19:42.612Z,100987.19
2023-02-23T07:21:14.202Z,100984.69
2023-02-23T07:22:45.720Z,100987.50
2023-02-23T07:24:17.300Z,100990.19
2023-02-23T07:25:50.812Z,100989.38
2023-02-23T07:27:22.610Z,100995.53
2023-02-23T07:28:54.359Z,100986.75
2023-02-23T07:30:26.041Z,100998.06
2023-02-23T07:31:59.067Z,100995.41
2023-02-23T07:33:32.529Z,101004.09
2023-02-23T07:35:04.636Z,100997.84
2023-02-23T07:36:36.352Z,101002.09
2023-02-23T07:38:07.870Z,101008.28
2023-02-23T07:39:39.345Z,100996.97
2023-02-23T07:41:10.861Z,101008.41
2023-02-23T07:42:42.498Z,100998.78
2023-02-23T07:44:14.730Z,101002.97
2023-02-23T07:45:46.969Z,101006.38
2023-02-23T07:47:19.968Z,101003.69
2023-02-23T07:48:51.481Z,101012.44
2023-02-23T07:50:23.129Z,101012.53
2023-02-23T07:51:54.633Z,101010.78
2023-02-23T07:53:27.879Z,101009.09
2023-02-23T07:54:59.521Z,101011.72
2023-02-23T07:56:31.087Z,101012.53
2023-02-23T07:58:02.666Z,101015.13
2023-02-23T07:59:34.459Z,101020.53
2023-02-23T08:01:06.210Z,101026.06
2023-02-23T08:02:39.168Z,101022.00
2023-02-23T08:04:10.885Z,101017.84
2023-02-23T08:05:44.813Z,101023.94
2023-02-23T08:07:18.461Z,101023.81
2023-02-23T08:08:50.271Z,101028.78
2023-02-23T08:10:21.884Z,101026.91
2023-02-23T08:11:53.421Z,101026.81
2023-02-23T08:13:24.950Z,101024.22
2023-02-23T08:14:56.792Z,101030.44
2023-02-23T08:16:28.599Z,101036.66
2023-02-23T08:18:01.592Z,101034.03
2023-02-23T08:19:34.185Z,101028.72
2023-02-23T08:21:05.972Z,101035.00
2023-02-23T08:22:48.852Z,101036.06
2023-02-23T08:24:20.727Z,101033.31
2023-02-23T08:25:53.923Z,101043.81
2023-02-23T08:27:25.456Z,101048.22
2023-02-23T08:28:57.061Z,101046.59
2023-02-23T08:30:28.837Z,101042.22
2023-02-23T08:32:01.763Z,101048.53
2023-02-23T08:33:35.269Z,101050.56
2023-02-23T08:35:07.812Z,101048.81
2023-02-23T08:36:40.576Z,101055.81
2023-02-23T08:38:12.465Z,101052.28
2023-02-23T08:39:44.086Z,101063.66
2023-02-23T08:41:15.894Z,101057.56
2023-02-23T08:42:49.096Z,101055.06
2023-02-23T08:44:20.623Z,101061.94
2023-02-23T08:45:52.199Z,101055.59
2023-02-23T08:47:24.255Z,101055.38
2023-02-23T08:48:57.271Z,101064.00
2023-02-23T08:50:29.085Z,101056.88
2023-02-23T08:52:00.750Z,101063.06
2023-02-23T08:53:32.262Z,101062.09
2023-02-23T08:55:04.930Z,101061.28
2023-02-23T08:56:36.600Z,101060.47
2023-02-23T08:58:09.348Z,101055.22
2023-02-23T08:59:41.524Z,101055.97
2023-02-23T09:01:18.140Z,101065.47
2023-02-23T09:02:50.224Z,101063.66
2023-02-23T09:04:23.182Z,101070.63
2023-02-23T09:05:55.444Z,101063.53
2023-02-23T09:07:27.025Z,101070.41
2023-02-23T09:08:58.484Z,101074.72
2023-02-23T09:10:30.421Z,101072.78
2023-02-23T09:12:02.685Z,101063.78
2023-02-23T09:13:34.301Z,101064.59
2023-02-23T09:15:06.361Z,101074.22
2023-02-23T09:16:37.995Z,101076.19
2023-02-23T09:18:10.915Z,101077.03
2023-02-23T09:19:43.908Z,101076.03
2023-02-23T09:21:19.065Z,101074.47
2023-02-23T09:22:51.008Z,101079.03
2023-02-23T09:24:22.502Z,101076.44
2023-02-23T09:25:54.075Z,101077.50
2023-02-23T09:27:25.695Z,101080.13
2023-02-23T09:28:58.395Z,101076.53
2023-02-23T09:30:30.194Z,101080.00
2023-02-23T09:32:01.937Z,101079.22
2023-02-23T09:33:33.668Z,101077.53
2023-02-23T09:35:07.113Z,101081.81
2023-02-23T09:36:38.689Z,101089.56
2023-02-23T09:38:10.184Z,101080.66
2023-02-23T09:39:41.661Z,101085.00
2023-02-23T09:41:45.840Z,101093.88
2023-02-23T09:43:21.173Z,101095.81
2023-02-23T09:45:03.943Z,101093.31
2023-02-23T09:46:42.358Z,101098.59
2023-02-23T09:48:16.632Z,101097.63
2023-02-23T09:49:49.754Z,101097.50
2023-02-23T09:51:23.530Z,101106.13
2023-02-23T09:52:59.386Z,101098.91
2023-02-23T09:54:33.292Z,101102.34
2023-02-23T09:56:07.009Z,101101.44
2023-02-23T09:57:39.958Z,101106.53
2023-02-23T09:59:13.401Z,101113.28
2023-02-23T10:00:49.405Z,101113.28
2023-02-23T10:02:24.316Z,101123.91
2023-02-23T10:03:59.802Z,101115.31
2023-02-23T10:05:33.001Z,101114.44
2023-02-23T10:07:09.505Z,101114.63
2023-02-23T10:08:48.584Z,101115.63
2023-02-23T10:10:25.564Z,101116.53
2023-02-23T10:12:02.706Z,101118.88
2023-02-23T10:13:40.396Z,101131.91
2023-02-23T10:15:18.635Z,101126.88
2023-02-23T10:16:55.795Z,101125.22
2023-02-23T10:18:45.614Z,101126.34
2023-02-23T10:20:23.252Z,101125.44
2023-02-23T10:21:56.202Z,101134.31
2023-02-23T10:23:31.577Z,101130.50
2023-02-23T10:25:06.567Z,101128.59
2023-02-23T10:26:44.246Z,101136.69
2023-02-23T10:28:17.133Z,101134.34
2023-02-23T10:29:51.420Z,101132.00
2023-02-23T10:31:28.545Z,101141.56
2023-02-23T10:33:05.026Z,101144.97
2023-02-23T10:34:37.191Z,101146.69
2023-02-23T10:36:13.870Z,101151.03
2023-02-23T10:37:45.979Z,101145.03
2023-02-23T10:39:19.005Z,101141.75
2023-02-23T10:40:53.705Z,101150.72
2023-02-23T10:42:28.978Z,101155.25
2023-02-23T10:44:15.364Z,101141.91
2023-02-23T10:45:49.425Z,101149.63
2023-02-23T10:47:22.832Z,101151.16
2023-02-23T10:48:57.024Z,101144.78
2023-02-23T10:50:29.261Z,101146.31
2023-02-23T10:52:02.909Z,101148.84
2023-02-23T10:53:35.767Z,101143.63
2023-02-23T10:55:23.534Z,101148.91
2023-02-23T10:56:55.273Z,101137.66
2023-02-23T10:58:27.672Z,101143.72
2023-02-23T11:00:01.139Z,101142.91
2023-02-23T11:01:36.127Z,101144.63
2023-02-23T11:03:19.064Z,101138.50
2023-02-23T11:04:53.012Z,101146.31
2023-02-23T11:06:28.929Z,101143.78
2023-02-23T11:08:10.500Z,101148.16
2023-02-23T11:09:47.110Z,101146.47
2023-02-23T11:11:25.410Z,101146.56
2023-02-23T11:12:57.048Z,101151.91
2023-02-23T11:14:29.555Z,101151.72
2023-02-23T11:16:02.623Z,101151.53
2023-02-23T11:17:36.276Z,101148.09
2023-02-23T11:19:18.791Z,101151.03
2023-02-23T11:20:51.222Z,101155.84
2023-02-23T11:22:23.309Z,101149.84
2023-02-23T11:23:57.447Z,101155.19
2023-02-23T11:25:30.250Z,101150.53
2023-02-23T11:27:07.877Z,101153.06
2023-02-23T11:28:42.581Z,101148.31
2023-02-23T11:30:14.522Z,101148.09
2023-02-23T11:31:48.605Z,101146.78
2023-02-23T11:33:31.666Z,101153.81
2023-02-23T11:35:15.160Z,101148.78
2023-02-23T11:36:57.590Z,101146.63
2023-02-23T11:38:30.571Z,101140.25
2023-02-23T11:40:04.094Z,101132.19
2023-02-23T11:41:37.186Z,101137.38
2023-02-23T11:43:15.290Z,101131.81
2023-02-23T11:44:50.794Z,101137.69
2023-02-23T11:46:23.235Z,101132.44
2023-02-23T11:47:56.535Z,101135.03
2023-02-23T11:49:31.614Z,101129.81
2023-02-23T11:51:03.420Z,101136.06
2023-02-23T11:52:36.944Z,101126.72
2023-02-23T11:54:19.347Z,101134.97
2023-02-23T11:55:54.730Z,101141.41
2023-02-23T11:57:29.121Z,101140.84
2023-02-23T11:59:04.454Z,101144.75
2023-02-23T12:00:36.048Z,101139.81
2023-02-23T12:02:22.434Z,101137.19
2023-02-23T12:03:57.202Z,101141.47
2023-02-23T12:05:29.801Z,101138.00
2023-02-23T12:07:16.194Z,101132.75
2023-02-23T12:08:49.292Z,101130.00
2023-02-23T12:10:23.730Z,101143.09
2023-02-23T12:11:58.118Z,101132.69
2023-02-23T12:13:35.056Z,101140.81
2023-02-23T12:15:14.631Z,101140.38
2023-02-23T12:16:48.211Z,101144.97
2023-02-23T12:18:30.881Z,101138.31
2023-02-23T12:20:04.210Z,101139.13
2023-02-23T12:21:39.150Z,101143.34
2023-02-23T12:23:12.883Z,101131.75
2023-02-23T12:24:47.238Z,101125.47
2023-02-23T12:26:21.496Z,101127.25
2023-02-23T12:27:55.452Z,101132.38
2023-02-23T12:29:31.480Z,101128.69
2023-02-23T12:31:06.679Z,101138.06
2023-02-23T12:32:44.157Z,101128.16
2023-02-23T12:34:19.336Z,101126.38
2023-02-23T12:35:52.853Z,101134.88
2023-02-23T12:37:30.305Z,101137.50
2023-02-23T12:39:06.294Z,101141.53
2023-02-23T12:40:39.271Z,101139.88
2023-02-23T12:42:14.659Z,101136.31
2023-02-23T12:43:51.727Z,101143.38
2023-02-23T12:45:28.072Z,101144.28
2023-02-23T12:47:04.749Z,101132.59
2023-02-23T12:48:41.948Z,101140.31
2023-02-23T12:50:27.206Z,101134.97
2023-02-23T12:52:02.494Z,101142.13
2023-02-23T12:53:38.750Z,101134.03
2023-02-23T12:55:11.807Z,101138.88
2023-02-23T12:56:49.681Z,101136.22
2023-02-23T12:58:24.502Z,101133.50
2023-02-23T13:00:09.917Z,101129.91
2023-02-23T13:01:45.108Z,101124.56
2023-02-23T13:03:33.308Z,101141.28
2023-02-23T13:05:13.473Z,101135.19
2023-02-23T13:06:50.658Z,101131.31
2023-02-23T13:08:26.998Z,101133.22
2023-02-23T13:10:04.263Z,101136.56
2023-02-23T13:11:53.136Z,101136.56
2023-02-23T13:13:30.300Z,101133.88
2023-02-23T13:15:09.451Z,101131.22
2023-02-23T13:16:44.302Z,101138.47
2023-02-23T13:18:22.033Z,101133.13
2023-02-23T13:19:56.528Z,101132.09
2023-02-23T13:21:33.168Z,101138.06
2023-02-23T13:23:19.242Z,101143.09
2023-02-23T13:24:53.143Z,101135.75
2023-02-23T13:26:30.260Z,101141.59
2023-02-23T13:28:02.000Z,101134.50
2023-02-23T13:29:36.149Z,101136.44
2023-02-23T13:31:12.360Z,101135.78
2023-02-23T13:32:43.975Z,101128.75
2023-02-23T13:34:19.577Z,101136.44
2023-02-23T13:35:52.691Z,101131.75
2023-02-23T13:37:27.444Z,101127.81
2023-02-23T13:39:19.180Z,101130.91
2023-02-23T13:40:54.796Z,101129.41
2023-02-23T13:42:30.926Z,101131.66
2023-02-23T13:44:08.203Z,101135.78
2023-02-23T13:45:48.692Z,101127.75
2023-02-23T13:47:33.741Z,101135.50
2023-02-23T13:49:16.004Z,101134.75
2023-02-23T13:50:50.517Z,101129.47
2023-02-23T13:52:28.407Z,101132.53
2023-02-23T13:54:01.345Z,101126.25
2023-02-23T13:55:48.076Z,101126.84
2023-02-23T13:57:22.017Z,101133.72
2023-02-23T13:58:58.647Z,101141.63
2023-02-23T14:00:30.784Z,101136.38
2023-02-23T14:02:06.547Z,101140.47
2023-02-23T14:03:53.344Z,101138.25
2023-02-23T14:05:26.129Z,101139.97
2023-02-23T14:07:00.917Z,101137.19
2023-02-23T14:08:35.084Z,101146.66
2023-02-23T14:10:08.024Z,101147.38
2023-02-23T14:11:44.748Z,101142.97
2023-02-23T14:13:26.092Z,101144.03
2023-02-23T14:15:17.885Z,101141.69
2023-02-23T14:17:04.551Z,101151.38
2023-02-23T14:18:50.592Z,101146.88
2023-02-23T14:20:39.639Z,101139.72
2023-02-23T14:22:13.634Z,101143.78
2023-02-23T14:25:48.641Z,101150.13
2023-02-23T14:27:39.845Z,101145.91
2023-02-23T14:29:29.110Z,101135.56
2023-02-23T14:31:02.245Z,101153.50
2023-02-23T14:32:38.572Z,101145.66
2023-02-23T14:34:13.302Z,101143.78
2023-02-23T14:35:47.938Z,101139.19
2023-02-23T14:37:32.266Z,101144.41
2023-02-23T14:39:08.220Z,101146.91
2023-02-23T14:40:40.937Z,101143.31
2023-02-23T14:42:19.814Z,101140.69
2023-02-23T14:43:54.290Z,101141.59
2023-02-23T14:45:28.841Z,101143.41
2023-02-23T14:47:02.344Z,101146.81
2023-02-23T14:48:36.684Z,101145.00
2023-02-23T14:50:16.085Z,101145.03
2023-02-23T14:51:49.173Z,101146.03
2023-02-23T14:53:21.770Z,101142.53
2023-02-23T14:55:06.183Z,101142.53
2023-02-23T14:56:46.787Z,101136.41
2023-02-23T14:58:21.596Z,101138.13
2023-02-23T14:59:54.472Z,101147.72
2023-02-23T15:01:36.326Z,101147.72
2023-02-23T15:03:14.923Z,101149.50
2023-02-23T15:04:46.734Z,101153.94
2023-02-23T15:06:19.055Z,101156.69
2023-02-23T15:07:51.934Z,101153.13
2023-02-23T15:09:29.234Z,101154.84
2023-02-23T15:11:08.972Z,101155.94
2023-02-23T15:12:40.553Z,101164.75
2023-02-23T15:14:26.903Z,101163.22
2023-02-23T15:16:02.340Z,101163.22
2023-02-23T15:17:34.472Z,101164.09
2023-02-23T15:19:06.847Z,101161.41
2023-02-23T15:20:41.172Z,101159.81
2023-02-23T15:22:20.171Z,101158.13
2023-02-23T15:23:57.770Z,101158.13
2023-02-23T15:25:34.158Z,101158.13
2023-02-23T15:27:20.302Z,101171.47
2023-02-23T15:28:52.043Z,101166.31
2023-02-23T15:30:26.561Z,101158.53
2023-02-23T15:32:11.148Z,101161.34
2023-02-23T15:33:45.108Z,101162.34
2023-02-23T15:35:16.991Z,101159.75
2023-02-23T15:36:50.664Z,101163.13
2023-02-23T15:38:42.471Z,101161.44
2023-02-23T15:40:16.463Z,101164.97
2023-02-23T15:41:49.473Z,101171.03
2023-02-23T15:43:22.467Z,101164.88
2023-02-23T15:44:58.664Z,101170.19
2023-02-23T15:46:30.359Z,101167.97
2023-02-23T15:48:04.026Z,101163.75
2023-02-23T15:49:37.023Z,101168.22
2023-02-23T15:51:22.871Z,101167.38
2023-02-23T15:52:57.518Z,101171.00
2023-02-23T15:54:30.739Z,101169.13
2023-02-23T15:56:04.027Z,101165.56
2023-02-23T15:57:44.416Z,101161.28
2023-02-23T15:59:20.927Z,101166.63
2023-02-23T16:00:55.228Z,101156.25
2023-02-23T16:02:26.836Z,101161.50
2023-02-23T16:04:00.910Z,101162.31
2023-02-23T16:05:47.122Z,101166.56
2023-02-23T16:07:19.570Z,101155.88
2023-02-23T16:09:02.969Z,101155.59
2023-02-23T16:10:43.234Z,101158.84
2023-02-23T16:12:17.843Z,101161.53
2023-02-23T16:13:54.692Z,101153.81
2023-02-23T16:15:29.430Z,101154.06
2023-02-23T16:17:11.310Z,101151.56
2023-02-23T16:18:47.543Z,101162.16
2023-02-23T16:20:25.850Z,101155.06
2023-02-23T16:21:57.956Z,101152.22
2023-02-23T16:23:36.978Z,101155.41
2023-02-23T16:25:11.566Z,101157.94
2023-02-23T16:26:46.454Z,101161.44
2023-02-23T16:28:18.871Z,101162.25
2023-02-23T16:29:56.305Z,101160.53
2023-02-23T16:31:43.531Z,101158.81
2023-02-23T16:33:19.881Z,101159.72
2023-02-23T16:34:56.174Z,101166.72
2023-02-23T16:36:39.993Z,101158.09
2023-02-23T16:38:12.660Z,101154.59
2023-02-23T16:39:44.644Z,101155.53
2023-02-23T16:41:21.350Z,101155.41
2023-02-23T16:42:54.081Z,101154.44
2023-02-23T16:44:41.419Z,101161.34
2023-02-23T16:46:14.940Z,101160.50
2023-02-23T16:47:48.406Z,101157.91
2023-02-23T16:49:20.126Z,101164.94
2023-02-23T16:50:52.902Z,101158.75
2023-02-23T16:52:25.782Z,101164.03
2023-02-23T16:53:57.342Z,101158.75
2023-02-23T16:55:29.350Z,101157.94
2023-02-23T16:57:00.961Z,101156.19
2023-02-23T16:58:34.091Z,101163.84
2023-02-23T17:00:15.472Z,101159.44
2023-02-23T17:01:47.067Z,101165.53
2023-02-23T17:03:22.329Z,101155.06
2023-02-23T17:04:58.823Z,101154.22
2023-02-23T17:06:30.614Z,101163.13
2023-02-23T17:08:02.877Z,101160.50
2023-02-23T17:09:34.412Z,101167.47
2023-02-23T17:11:06.351Z,101162.22
2023-02-23T17:12:37.881Z,101161.13
2023-02-23T17:14:10.853Z,101159.31
2023-02-23T17:15:48.011Z,101161.09
2023-02-23T17:17:19.687Z,101161.03
2023-02-23T17:18:52.648Z,101160.13
2023-02-23T17:20:25.923Z,101165.53
2023-02-23T17:21:57.641Z,101164.84
2023-02-23T17:23:38.301Z,101164.84
2023-02-23T17:25:09.951Z,101162.13
2023-02-23T17:26:42.244Z,101172.78
2023-02-23T17:28:13.886Z,101173.75
2023-02-23T17:29:45.492Z,101174.75
2023-02-23T17:31:17.961Z,101184.53
2023-02-23T17:32:51.009Z,101180.22
2023-02-23T17:34:24.156Z,101183.88
2023-02-23T17:35:55.690Z,101181.38
2023-02-23T17:37:27.293Z,101175.25
2023-02-23T17:38:59.092Z,101174.53
2023-02-23T17:40:31.063Z,101172.94
2023-02-23T17:42:02.647Z,101173.78
2023-02-23T17:43:34.935Z,101175.06
2023-02-23T17:45:07.097Z,101177.88
2023-02-23T17:46:38.822Z,101183.28
2023-02-23T17:48:10.578Z,101184.38
2023-02-23T17:49:43.475Z,101197.50
2023-02-23T17:51:16.873Z,101193.31
2023-02-23T17:52:49.057Z,101189.72
2023-02-23T17:54:20.733Z,101192.16
2023-02-23T17:55:53.490Z,101186.91
2023-02-23T17:57:25.790Z,101186.22
2023-02-23T17:58:58.650Z,101199.34
2023-02-23T18:00:30.141Z,101195.03
2023-02-23T18:02:01.906Z,101193.28
2023-02-23T18:03:34.315Z,101190.53
2023-02-23T18:05:07.702Z,101189.50
2023-02-23T18:06:39.279Z,101191.97
2023-02-23T18:08:10.855Z,101191.00
2023-02-23T18:09:42.537Z,101193.53
2023-02-23T18:11:16.492Z,101196.16
2023-02-23T18:12:48.138Z,101192.63
2023-02-23T18:14:19.691Z,101203.06